Time;durP1;ratioP1;P1;durP2;ratioP2;P2;SDS_P1;SDS_P2;PMS_P1;PMS_P2;Temp;Humidity;BMP_temperature;BMP_pressure;BME280_temperature;BME280_humidity;BME280_pressure;Samples;Min_cycle;Max_cycle;Signal;HPM_P1;HPM_P2
2023/05/06 00:01:53;;;;;;;;;;;;;;;20.87;45.25;101636.44;5115069;27;19911;-70
2023/05/06 00:04:18;;;;;;;;;;;;;;;20.86;45.55;101636.63;5110737;28;19916;-70
2023/05/06 00:06:43;;;;;;;;;;;;;;;20.85;45.32;101634.91;5131400;27;19911;-70
2023/05/06 00:09:09;;;;;;;;;;;;;;;20.85;45.31;101634.91;5129885;27;19938;-70
2023/05/06 00:11:34;;;;;;;;;;;;;;;20.84;45.50;101631.38;5129401;27;20014;-70
2023/05/06 00:13:59;;;;;;;;;;;;;;;20.84;45.32;101634.06;5128117;28;19927;-70
2023/05/06 00:16:25;;;;;;;;;;;;;;;20.84;45.60;101630.53;5133184;27;19934;-70
2023/05/06 00:18:50;;;;;;;;;;;;;;;20.83;45.45;101634.25;5132636;27;19916;-70
2023/05/06 00:21:15;;;;;;;;;;;;;;;20.82;45.58;101640.66;5130850;27;19911;-70
2023/05/06 00:23:40;;;;;;;;;;;;;;;20.81;45.22;101630.84;5131993;27;19966;-70
2023/05/06 00:26:05;;;;;;;;;;;;;;;20.80;45.61;101632.69;5128680;28;19918;-70
2023/05/06 00:28:30;;;;;;;;;;;;;;;20.80;45.49;101634.56;5124572;28;19943;-72
2023/05/06 00:30:56;;;;;;;;;;;;;;;20.78;45.19;101631.19;5132578;27;19985;-70
2023/05/06 00:33:21;;;;;;;;;;;;;;;20.78;45.31;101625.78;5136060;27;19933;-70
2023/05/06 00:35:47;;;;;;;;;;;;;;;20.77;45.38;101633.03;5136509;27;20002;-70
2023/05/06 00:38:14;;;;;;;;;;;;;;;20.77;45.23;101621.38;5133074;27;19915;-71
2023/05/06 00:40:39;;;;;;;;;;;;;;;20.75;45.48;101629.66;5134484;27;19920;-70
2023/05/06 00:43:04;;;;;;;;;;;;;;;20.75;45.14;101628.81;5128096;27;19920;-70
2023/05/06 00:45:29;;;;;;;;;;;;;;;20.74;45.38;101627.13;5140719;27;19916;-70
2023/05/06 00:47:55;;;;;;;;;;;;;;;20.73;45.14;101631.69;5136675;27;19939;-70
2023/05/06 00:50:20;;;;;;;;;;;;;;;20.72;45.21;101629.97;5142109;27;19942;-70
2023/05/06 00:52:45;;;;;;;;;;;;;;;20.71;45.40;101633.69;5117593;27;19919;-70
2023/05/06 00:55:10;;;;;;;;;;;;;;;20.70;45.19;101632.84;5133454;27;19915;-70
2023/05/06 00:57:36;;;;;;;;;;;;;;;20.70;45.40;101634.69;5116960;27;19963;-70
2023/05/06 01:00:01;;;;;;;;;;;;;;;20.68;45.17;101624.03;5134313;27;19911;-70
2023/05/06 01:02:27;;;;;;;;;;;;;;;20.67;45.42;101630.47;5111857;27;19920;-70
2023/05/06 01:04:54;;;;;;;;;;;;;;;20.66;45.34;101623.38;5131293;27;19975;-70
2023/05/06 01:07:22;;;;;;;;;;;;;;;20.66;45.34;101622.53;5135918;27;19950;-70
2023/05/06 01:10:01;;;;;;;;;;;;;;;20.65;44.94;101620.84;5132605;27;19911;-70
2023/05/06 01:12:31;;;;;;;;;;;;;;;20.65;45.34;101626.25;5120629;27;19958;-70
2023/05/06 01:15:07;;;;;;;;;;;;;;;20.63;45.31;101603.94;5125171;27;19999;-70
2023/05/06 01:17:33;;;;;;;;;;;;;;;20.62;45.06;101615.75;5147926;27;19923;-70
2023/05/06 01:19:58;;;;;;;;;;;;;;;20.61;45.08;101617.63;5115955;27;20441;-70
2023/05/06 01:22:23;;;;;;;;;;;;;;;20.60;45.01;101618.63;5134398;27;19955;-70
2023/05/06 01:24:48;;;;;;;;;;;;;;;20.60;45.01;101618.63;5117760;27;19938;-71
2023/05/06 01:27:15;;;;;;;;;;;;;;;20.60;45.15;101620.47;5132801;27;20276;-70
2023/05/06 01:29:41;;;;;;;;;;;;;;;20.59;45.18;101627.72;5113648;27;19911;-71
2023/05/06 01:32:09;;;;;;;;;;;;;;;20.57;45.15;101621.66;5118116;27;20027;-70
2023/05/06 01:34:37;;;;;;;;;;;;;;;20.57;45.04;101618.09;5119485;27;19968;-70
2023/05/06 01:37:05;;;;;;;;;;;;;;;20.56;45.37;101627.19;5115387;27;19962;-70
2023/05/06 01:39:31;;;;;;;;;;;;;;;20.55;45.11;101623.66;5136041;27;20379;-70
2023/05/06 01:41:56;;;;;;;;;;;;;;;20.55;45.24;101622.81;5114757;28;19920;-70
2023/05/06 01:44:21;;;;;;;;;;;;;;;20.54;45.17;101619.25;5128765;27;20418;-70
2023/05/06 01:46:47;;;;;;;;;;;;;;;20.53;45.01;101614.88;5126544;28;19911;-70
2023/05/06 01:49:12;;;;;;;;;;;;;;;20.53;45.10;101622.13;5137997;27;20588;-70
2023/05/06 01:51:37;;;;;;;;;;;;;;;20.52;45.00;101612.31;5122171;27;20434;-69
2023/05/06 01:54:02;;;;;;;;;;;;;;;20.52;45.07;101617.72;5130610;27;19919;-70
2023/05/06 01:56:31;;;;;;;;;;;;;;;20.51;45.29;101616.03;5100301;27;19920;-70
2023/05/06 01:58:57;;;;;;;;;;;;;;;20.50;45.31;101612.50;5132320;27;19916;-70
2023/05/06 02:01:22;;;;;;;;;;;;;;;20.49;45.14;101613.50;5133832;27;19922;-70
2023/05/06 02:03:47;;;;;;;;;;;;;;;20.48;45.21;101611.81;5132144;27;19923;-70
2023/05/06 02:06:12;;;;;;;;;;;;;;;20.47;45.10;101610.06;5115038;27;19927;-70
2023/05/06 02:08:38;;;;;;;;;;;;;;;20.47;45.06;101624.44;5131995;27;20428;-70
2023/05/06 02:11:03;;;;;;;;;;;;;;;20.46;45.33;101630.84;5133339;27;19927;-70
2023/05/06 02:13:28;;;;;;;;;;;;;;;20.46;45.24;101624.59;5138416;27;19916;-70
2023/05/06 02:15:53;;;;;;;;;;;;;;;20.44;45.30;101619.38;5130170;27;19927;-70
2023/05/06 02:18:18;;;;;;;;;;;;;;;20.44;45.05;101616.66;5134158;27;19983;-70
2023/05/06 02:20:44;;;;;;;;;;;;;;;20.43;45.38;101614.97;5132653;27;19912;-70
2023/05/06 02:23:12;;;;;;;;;;;;;;;20.43;45.41;101622.22;5131169;27;19916;-70
2023/05/06 02:25:37;;;;;;;;;;;;;;;20.42;45.29;101618.66;5134002;27;19915;-70
2023/05/06 02:28:02;;;;;;;;;;;;;;;20.42;45.32;101620.53;5115685;27;19923;-70
2023/05/06 02:30:29;;;;;;;;;;;;;;;20.41;45.17;101614.28;5129581;27;19915;-70
2023/05/06 02:32:55;;;;;;;;;;;;;;;20.41;45.10;101621.53;5136765;27;19916;-70
2023/05/06 02:35:20;;;;;;;;;;;;;;;20.40;45.29;101617.16;5134374;27;19932;-70
2023/05/06 02:37:45;;;;;;;;;;;;;;;20.39;45.39;101619.00;5134496;27;19974;-70
2023/05/06 02:40:10;;;;;;;;;;;;;;;20.39;44.95;101615.44;5136226;27;19967;-70
2023/05/06 02:42:36;;;;;;;;;;;;;;;20.38;45.02;101619.16;5132380;27;19979;-70
2023/05/06 02:45:01;;;;;;;;;;;;;;;20.38;45.03;101629.94;5136757;27;19951;-70
2023/05/06 02:47:26;;;;;;;;;;;;;;;20.36;45.10;101627.41;5134588;27;19945;-70
2023/05/06 02:49:51;;;;;;;;;;;;;;;20.36;45.26;101627.41;5130758;27;19927;-70
2023/05/06 02:52:17;;;;;;;;;;;;;;;20.35;45.23;101623.03;5132134;27;19915;-71
2023/05/06 02:54:42;;;;;;;;;;;;;;;20.36;45.10;101626.56;5127728;27;19934;-70
2023/05/06 02:57:07;;;;;;;;;;;;;;;20.33;45.15;101622.34;5131190;27;19919;-70
2023/05/06 02:59:33;;;;;;;;;;;;;;;20.33;45.21;101625.03;5131255;27;20380;-70
2023/05/06 03:01:58;;;;;;;;;;;;;;;20.32;45.03;101615.25;5135669;27;19924;-70
2023/05/06 03:04:23;;;;;;;;;;;;;;;20.32;45.12;101612.53;5113521;27;19912;-70
2023/05/06 03:06:49;;;;;;;;;;;;;;;20.31;44.98;101616.25;5135271;27;20050;-70
2023/05/06 03:09:14;;;;;;;;;;;;;;;20.30;45.17;101609.16;5114774;27;19912;-70
2023/05/06 03:11:39;;;;;;;;;;;;;;;20.29;45.30;101612.84;5133639;27;19923;-71
2023/05/06 03:14:04;;;;;;;;;;;;;;;20.29;45.17;101625.50;5135529;27;19941;-70
2023/05/06 03:16:30;;;;;;;;;;;;;;;20.28;45.07;101613.88;5130973;27;19927;-70
2023/05/06 03:18:55;;;;;;;;;;;;;;;20.28;45.38;101610.31;5132820;27;19919;-70
2023/05/06 03:21:20;;;;;;;;;;;;;;;20.28;45.12;101607.63;5128981;27;19915;-69
2023/05/06 03:23:45;;;;;;;;;;;;;;;20.27;45.05;101605.94;5130878;27;19912;-70
2023/05/06 03:26:10;;;;;;;;;;;;;;;20.26;45.11;101606.94;5130334;27;19922;-70
2023/05/06 03:28:36;;;;;;;;;;;;;;;20.25;45.08;101613.34;5133859;27;20423;-71
2023/05/06 03:31:01;;;;;;;;;;;;;;;20.25;45.11;101614.19;5130643;27;19924;-71
2023/05/06 03:33:26;;;;;;;;;;;;;;;20.25;45.33;101603.38;5132755;27;19923;-70
2023/05/06 03:35:51;;;;;;;;;;;;;;;20.25;45.50;101607.94;5134435;27;19915;-70
2023/05/06 03:38:16;;;;;;;;;;;;;;;20.25;45.92;101606.09;5134261;27;20010;-74
2023/05/06 03:40:41;;;;;;;;;;;;;;;20.25;45.85;101605.25;5137520;27;20637;-71
2023/05/06 03:43:07;;;;;;;;;;;;;;;20.25;46.10;101597.13;5109913;28;19920;-70
2023/05/06 03:45:32;;;;;;;;;;;;;;;20.25;46.15;101606.09;5131366;27;19915;-70
2023/05/06 03:47:57;;;;;;;;;;;;;;;20.26;46.00;101615.03;5133294;27;20005;-71
2023/05/06 03:50:22;;;;;;;;;;;;;;;20.26;46.38;101606.94;5138591;27;19954;-71
2023/05/06 03:52:47;;;;;;;;;;;;;;;20.26;46.11;101615.88;5128858;27;19931;-71
2023/05/06 03:55:12;;;;;;;;;;;;;;;20.26;46.21;101613.16;5111693;27;19923;-70
2023/05/06 03:57:38;;;;;;;;;;;;;;;20.25;46.33;101608.78;5112041;27;20014;-70
2023/05/06 04:00:03;;;;;;;;;;;;;;;20.25;46.28;101611.47;5130436;27;19912;-71
2023/05/06 04:02:28;;;;;;;;;;;;;;;20.27;46.58;101611.34;5133882;27;19947;-72
2023/05/06 04:04:54;;;;;;;;;;;;;;;20.26;46.46;101606.94;5128469;27;19912;-73
2023/05/06 04:07:19;;;;;;;;;;;;;;;20.27;46.62;101608.66;5136610;27;20250;-71
2023/05/06 04:09:44;;;;;;;;;;;;;;;20.26;46.64;101605.06;5132020;27;19915;-71
2023/05/06 04:12:09;;;;;;;;;;;;;;;20.27;46.80;101604.09;5129294;27;19972;-73
2023/05/06 04:14:34;;;;;;;;;;;;;;;20.26;46.65;101599.66;5135257;27;19915;-71
2023/05/06 04:17:00;;;;;;;;;;;;;;;20.26;46.83;101594.25;5130179;27;19923;-72
2023/05/06 04:19:25;;;;;;;;;;;;;;;20.25;46.94;101606.09;5132810;27;19916;-71
2023/05/06 04:21:51;;;;;;;;;;;;;;;20.26;46.68;101598.81;5111437;28;19912;-72
2023/05/06 04:24:16;;;;;;;;;;;;;;;20.25;46.63;101606.09;5131610;27;19911;-70
2023/05/06 04:26:41;;;;;;;;;;;;;;;20.25;46.73;101610.63;5128936;27;19964;-67
2023/05/06 04:29:06;;;;;;;;;;;;;;;20.25;46.79;101610.63;5135181;28;19912;-75
2023/05/06 04:31:33;;;;;;;;;;;;;;;20.23;46.73;101611.66;5129571;28;20002;-66
2023/05/06 04:33:58;;;;;;;;;;;;;;;20.23;46.60;101608.94;5136304;28;19915;-69
2023/05/06 04:36:23;;;;;;;;;;;;;;;20.23;46.67;101616.22;5116057;28;20014;-68
2023/05/06 04:38:48;;;;;;;;;;;;;;;20.22;46.32;101619.94;5135797;27;19916;-69
2023/05/06 04:41:14;;;;;;;;;;;;;;;20.21;46.42;101621.75;5115233;28;19933;-69
2023/05/06 04:43:40;;;;;;;;;;;;;;;20.21;46.38;101624.44;5129989;28;19912;-70
2023/05/06 04:46:05;;;;;;;;;;;;;;;20.20;46.45;101622.75;5131695;28;19911;-72
2023/05/06 04:48:30;;;;;;;;;;;;;;;20.20;46.71;101622.75;5129208;28;19923;-70
2023/05/06 04:50:56;;;;;;;;;;;;;;;20.20;46.58;101619.22;5131378;27;19919;-69
2023/05/06 04:53:21;;;;;;;;;;;;;;;20.21;46.69;101623.59;5111801;28;19912;-70
2023/05/06 04:55:46;;;;;;;;;;;;;;;20.20;46.48;101628.16;5131307;28;20422;-69
2023/05/06 04:58:11;;;;;;;;;;;;;;;20.19;46.28;101631.03;5131344;28;19922;-69
2023/05/06 05:00:37;;;;;;;;;;;;;;;20.19;46.28;101633.75;5132545;28;19911;-69
2023/05/06 05:03:02;;;;;;;;;;;;;;;20.18;46.38;101629.34;5136618;28;20356;-70
2023/05/06 05:05:27;;;;;;;;;;;;;;;20.18;46.35;101637.44;5123671;28;20384;-69
2023/05/06 05:07:53;;;;;;;;;;;;;;;20.17;46.38;101635.72;5132126;28;19911;-69
2023/05/06 05:10:18;;;;;;;;;;;;;;;20.17;46.01;101636.56;5111406;28;19998;-69
2023/05/06 05:12:43;;;;;;;;;;;;;;;20.16;46.02;101640.28;5131060;28;19920;-70
2023/05/06 05:15:09;;;;;;;;;;;;;;;20.16;46.17;101642.16;5132853;28;19920;-69
2023/05/06 05:17:34;;;;;;;;;;;;;;;20.15;45.97;101643.16;5136337;27;19991;-69
2023/05/06 05:19:59;;;;;;;;;;;;;;;20.15;46.08;101641.31;5132634;27;19936;-70
2023/05/06 05:22:24;;;;;;;;;;;;;;;20.15;45.89;101645.88;5134678;27;20373;-69
2023/05/06 05:24:50;;;;;;;;;;;;;;;20.14;45.86;101644.19;5135288;27;19912;-69
2023/05/06 05:27:15;;;;;;;;;;;;;;;20.14;46.02;101652.28;5132911;27;19915;-69
2023/05/06 05:29:40;;;;;;;;;;;;;;;20.13;45.79;101653.25;5139875;27;20010;-70
2023/05/06 05:32:06;;;;;;;;;;;;;;;20.13;46.09;101650.56;5134313;27;19923;-70
2023/05/06 05:34:31;;;;;;;;;;;;;;;20.12;45.96;101644.31;5137848;27;19974;-69
2023/05/06 05:36:57;;;;;;;;;;;;;;;20.13;45.92;101656.81;5127640;27;19911;-70
2023/05/06 05:39:22;;;;;;;;;;;;;;;20.13;45.77;101655.97;5134184;27;19958;-69
2023/05/06 05:41:47;;;;;;;;;;;;;;;20.12;45.83;101651.56;5134659;27;19955;-69
2023/05/06 05:44:13;;;;;;;;;;;;;;;20.11;45.74;101656.13;5132245;27;19956;-69
2023/05/06 05:46:38;;;;;;;;;;;;;;;20.12;45.91;101668.63;5112810;28;19923;-70
2023/05/06 05:49:03;;;;;;;;;;;;;;;20.11;45.94;101664.22;5133153;27;19927;-69
2023/05/06 05:51:28;;;;;;;;;;;;;;;20.11;45.90;101664.22;5136844;27;19919;-69
2023/05/06 05:53:53;;;;;;;;;;;;;;;20.12;45.61;101665.91;5132884;27;19916;-69
2023/05/06 05:56:18;;;;;;;;;;;;;;;20.11;45.77;101674.19;5136493;27;19974;-69
2023/05/06 05:58:46;;;;;;;;;;;;;;;20.11;45.93;101668.78;5134768;27;19915;-69
2023/05/06 06:01:11;;;;;;;;;;;;;;;20.11;45.65;101669.63;5134858;27;19933;-69
2023/05/06 06:03:36;;;;;;;;;;;;;;;20.11;45.68;101666.09;5139399;27;19965;-69
2023/05/06 06:06:01;;;;;;;;;;;;;;;20.10;45.74;101670.63;5132673;27;19911;-69
2023/05/06 06:08:28;;;;;;;;;;;;;;;20.11;45.79;101669.63;5133686;27;19911;-70
2023/05/06 06:10:53;;;;;;;;;;;;;;;20.11;45.66;101671.47;5131605;27;19944;-69
2023/05/06 06:13:18;;;;;;;;;;;;;;;20.11;45.60;101676.88;5128253;27;19987;-69
2023/05/06 06:15:45;;;;;;;;;;;;;;;20.12;45.63;101670.47;5133315;27;19942;-69
2023/05/06 06:18:10;;;;;;;;;;;;;;;20.12;45.71;101670.47;5137998;27;20303;-69
2023/05/06 06:20:35;;;;;;;;;;;;;;;20.11;45.65;101666.09;5130601;27;19912;-69
2023/05/06 06:23:00;;;;;;;;;;;;;;;20.12;45.66;101665.91;5135223;27;19912;-70
2023/05/06 06:25:26;;;;;;;;;;;;;;;20.13;45.83;101674.84;5135828;27;19911;-70
2023/05/06 06:27:51;;;;;;;;;;;;;;;20.13;45.70;101669.44;5129183;27;19939;-71
2023/05/06 06:30:16;;;;;;;;;;;;;;;20.12;45.76;101668.63;5140375;27;19912;-69
2023/05/06 06:32:51;;;;;;;;;;;;;;;20.14;45.63;101673.88;5131960;27;19927;-69
2023/05/06 06:35:17;;;;;;;;;;;;;;;20.13;45.67;101674.84;5134176;27;19919;-69
2023/05/06 06:37:43;;;;;;;;;;;;;;;20.13;45.42;101674.84;5133702;27;19922;-69
2023/05/06 06:40:09;;;;;;;;;;;;;;;20.14;45.75;101676.56;5134371;27;19916;-70
2023/05/06 06:42:34;;;;;;;;;;;;;;;20.14;45.60;101672.03;5134275;27;19916;-72
2023/05/06 06:45:00;;;;;;;;;;;;;;;20.14;45.69;101676.56;5136641;27;19954;-72
2023/05/06 06:47:25;;;;;;;;;;;;;;;20.14;45.69;101681.97;5115527;28;20004;-70
2023/05/06 06:49:50;;;;;;;;;;;;;;;20.15;45.49;101683.66;5134007;27;19912;-70
2023/05/06 06:52:15;;;;;;;;;;;;;;;20.14;45.52;101682.81;5137574;27;19920;-69
2023/05/06 06:54:40;;;;;;;;;;;;;;;20.15;45.62;101691.75;5130365;27;19919;-71
2023/05/06 06:57:06;;;;;;;;;;;;;;;20.15;45.31;101684.50;5144090;27;19915;-72
2023/05/06 06:59:31;;;;;;;;;;;;;;;20.15;45.50;101683.66;5134733;27;20282;-70
2023/05/06 07:01:56;;;;;;;;;;;;;;;20.15;45.64;101689.06;5133734;27;19947;-69
2023/05/06 07:04:21;;;;;;;;;;;;;;;20.15;45.57;101692.59;5134673;27;19981;-69
2023/05/06 07:06:46;;;;;;;;;;;;;;;20.16;45.33;101686.19;5130891;27;19918;-69
2023/05/06 07:09:12;;;;;;;;;;;;;;;20.16;45.36;101688.03;5130362;27;19911;-69
2023/05/06 07:11:37;;;;;;;;;;;;;;;20.15;45.55;101686.34;5131390;27;19916;-70
2023/05/06 07:14:02;;;;;;;;;;;;;;;20.17;45.32;101695.97;5135060;27;20112;-70
2023/05/06 07:16:28;;;;;;;;;;;;;;;20.17;45.57;101684.34;5112539;27;19996;-70
2023/05/06 07:18:53;;;;;;;;;;;;;;;20.17;45.55;101689.72;5131966;27;19920;-70
2023/05/06 07:21:18;;;;;;;;;;;;;;;20.17;45.24;101693.28;5129874;27;19962;-72
2023/05/06 07:23:43;;;;;;;;;;;;;;;20.18;45.37;101694.16;5137553;27;19911;-71
2023/05/06 07:26:08;;;;;;;;;;;;;;;20.19;45.24;101693.13;5124863;27;19912;-72
2023/05/06 07:28:34;;;;;;;;;;;;;;;20.19;45.55;101688.59;5131995;27;19919;-72
2023/05/06 07:30:59;;;;;;;;;;;;;;;20.20;45.24;101690.28;5135946;27;19923;-72
2023/05/06 07:33:24;;;;;;;;;;;;;;;20.21;45.61;101693.81;5117618;27;19950;-72
2023/05/06 07:35:50;;;;;;;;;;;;;;;20.21;45.37;101691.13;5130513;27;20010;-69
2023/05/06 07:38:15;;;;;;;;;;;;;;;20.21;45.33;101686.56;5114521;27;19911;-71
2023/05/06 07:40:40;;;;;;;;;;;;;;;20.21;45.36;101688.41;5131754;27;19916;-71
2023/05/06 07:43:06;;;;;;;;;;;;;;;20.22;45.49;101684.72;5130354;27;20433;-71
2023/05/06 07:45:31;;;;;;;;;;;;;;;20.22;45.55;101695.53;5114958;27;19941;-72
2023/05/06 07:47:57;;;;;;;;;;;;;;;20.22;45.28;101692.84;5131339;27;20360;-72
2023/05/06 07:50:22;;;;;;;;;;;;;;;20.22;45.47;101701.78;5137773;27;19916;-71
2023/05/06 07:52:47;;;;;;;;;;;;;;;20.23;45.46;101697.22;5136035;27;19931;-71
2023/05/06 07:55:12;;;;;;;;;;;;;;;20.22;45.48;101696.38;5128657;27;19919;-71
2023/05/06 07:57:37;;;;;;;;;;;;;;;20.24;45.61;101696.22;5135481;27;19916;-71
2023/05/06 08:00:03;;;;;;;;;;;;;;;20.25;45.59;101702.44;5130903;27;19961;-71
2023/05/06 08:02:29;;;;;;;;;;;;;;;20.25;45.34;101699.75;5135048;27;19923;-71
2023/05/06 08:04:54;;;;;;;;;;;;;;;20.25;45.38;101703.28;5132400;27;19912;-71
2023/05/06 08:07:20;;;;;;;;;;;;;;;20.25;45.45;101707.84;5131051;27;20275;-71
2023/05/06 08:09:45;;;;;;;;;;;;;;;20.26;45.39;101709.53;5130183;27;19916;-72
2023/05/06 08:12:10;;;;;;;;;;;;;;;20.25;45.62;101706.00;5130529;27;20402;-72
2023/05/06 08:14:35;;;;;;;;;;;;;;;20.25;45.70;101708.69;5132236;27;19922;-71
2023/05/06 08:17:01;;;;;;;;;;;;;;;20.25;45.57;101716.78;5129171;28;19976;-71
2023/05/06 08:19:26;;;;;;;;;;;;;;;20.25;45.33;101722.19;5135440;27;20486;-72
2023/05/06 08:21:51;;;;;;;;;;;;;;;20.24;45.42;101717.81;5130323;27;19919;-71
2023/05/06 08:24:16;;;;;;;;;;;;;;;20.23;45.53;101722.38;5138540;27;19919;-72
2023/05/06 08:26:42;;;;;;;;;;;;;;;20.25;45.60;101721.34;5132918;27;19933;-72
2023/05/06 08:29:07;;;;;;;;;;;;;;;20.24;45.50;101717.81;5129669;28;19915;-72
2023/05/06 08:31:32;;;;;;;;;;;;;;;20.23;45.46;101718.81;5134567;28;20954;-72
2023/05/06 08:33:57;;;;;;;;;;;;;;;20.23;45.79;101718.81;5129750;28;19911;-72
2023/05/06 08:36:22;;;;;;;;;;;;;;;20.22;45.49;101717.97;5129547;28;19933;-72
2023/05/06 08:38:49;;;;;;;;;;;;;;;20.22;45.48;101715.28;5131378;27;19916;-71
2023/05/06 08:41:16;;;;;;;;;;;;;;;20.22;45.67;101707.19;5132214;28;19918;-71
2023/05/06 08:43:41;;;;;;;;;;;;;;;20.23;45.52;101718.81;5125137;28;19912;-72
2023/05/06 08:46:06;;;;;;;;;;;;;;;20.23;45.44;101719.66;5119821;28;19993;-72
2023/05/06 08:48:31;;;;;;;;;;;;;;;20.23;45.53;101719.66;5130052;28;19933;-72
2023/05/06 08:50:57;;;;;;;;;;;;;;;20.23;45.78;101718.81;5134888;27;19916;-71
2023/05/06 08:53:22;;;;;;;;;;;;;;;20.24;45.61;101720.50;5110849;27;20536;-72
2023/05/06 08:55:48;;;;;;;;;;;;;;;20.23;45.72;101719.66;5115769;27;19919;-72
2023/05/06 08:58:14;;;;;;;;;;;;;;;20.25;45.47;101726.75;5118603;27;20356;-71
2023/05/06 09:00:39;;;;;;;;;;;;;;;20.25;45.73;101718.66;5127812;28;19939;-71
2023/05/06 09:03:05;;;;;;;;;;;;;;;20.26;45.63;101720.34;5129947;27;19919;-72
2023/05/06 09:05:30;;;;;;;;;;;;;;;20.25;45.83;101716.78;5134741;27;20284;-71
2023/05/06 09:07:55;;;;;;;;;;;;;;;20.25;45.54;101710.56;5135261;27;19916;-72
2023/05/06 09:10:20;;;;;;;;;;;;;;;20.27;46.00;101711.25;5112182;27;19923;-72
2023/05/06 09:12:46;;;;;;;;;;;;;;;20.26;45.77;101704.13;5117533;27;19916;-72
2023/05/06 09:15:11;;;;;;;;;;;;;;;20.27;45.67;101697.75;5135887;27;19919;-71
2023/05/06 09:17:37;;;;;;;;;;;;;;;20.27;45.83;101704.00;5137133;27;19972;-71
2023/05/06 09:20:05;;;;;;;;;;;;;;;20.27;45.70;101697.75;5138451;27;19929;-71
2023/05/06 09:22:30;;;;;;;;;;;;;;;20.27;45.58;101704.00;5132794;27;20009;-71
2023/05/06 09:24:56;;;;;;;;;;;;;;;20.27;45.57;101698.59;5137616;27;19912;-72
2023/05/06 09:27:22;;;;;;;;;;;;;;;20.28;45.69;101696.75;5116226;27;19957;-72
2023/05/06 09:30:00;;;;;;;;;;;;;;;20.29;45.69;101698.44;5126920;27;20323;-72
2023/05/06 09:32:25;;;;;;;;;;;;;;;20.29;45.81;101696.56;5135583;27;19951;-72
2023/05/06 09:34:50;;;;;;;;;;;;;;;20.30;45.88;101692.84;5133510;27;19915;-71
2023/05/06 09:37:15;;;;;;;;;;;;;;;20.31;45.49;101697.28;5130438;27;19912;-73
2023/05/06 09:39:41;;;;;;;;;;;;;;;20.31;45.47;101697.28;5134608;27;19912;-71
2023/05/06 09:42:06;;;;;;;;;;;;;;;20.32;45.54;101690.88;5134478;27;19955;-71
2023/05/06 09:44:31;;;;;;;;;;;;;;;20.33;45.39;101692.56;5115548;27;20010;-72
2023/05/06 09:46:56;;;;;;;;;;;;;;;20.33;45.58;101695.25;5120313;27;19919;-72
2023/05/06 09:49:22;;;;;;;;;;;;;;;20.34;45.57;101686.13;5137312;27;19920;-72
2023/05/06 09:51:50;;;;;;;;;;;;;;;20.34;45.63;101680.72;5119056;27;19920;-72
2023/05/06 09:54:15;;;;;;;;;;;;;;;20.35;45.66;101682.44;5136096;27;20324;-71
2023/05/06 09:56:40;;;;;;;;;;;;;;;20.37;45.31;101679.59;5113725;27;19926;-71
2023/05/06 09:59:06;;;;;;;;;;;;;;;20.38;45.57;101686.66;5133613;27;19911;-71
2023/05/06 10:01:33;;;;;;;;;;;;;;;20.38;45.38;101674.00;5116302;27;19923;-71
2023/05/06 10:03:58;;;;;;;;;;;;;;;20.39;45.34;101677.56;5113164;28;19920;-71
2023/05/06 10:06:23;;;;;;;;;;;;;;;20.39;45.62;101670.31;5128702;27;19911;-71
2023/05/06 10:08:48;;;;;;;;;;;;;;;20.40;45.63;101669.31;5136057;27;19912;-71
2023/05/06 10:11:14;;;;;;;;;;;;;;;20.41;45.58;101676.41;5126327;27;19916;-72
2023/05/06 10:13:39;;;;;;;;;;;;;;;20.43;45.60;101670.81;5119241;27;19915;-72
2023/05/06 10:16:04;;;;;;;;;;;;;;;20.43;45.61;101669.00;5116934;27;19926;-72
2023/05/06 10:18:30;;;;;;;;;;;;;;;20.45;45.59;101664.25;5133103;27;19918;-72
2023/05/06 10:20:55;;;;;;;;;;;;;;;20.46;45.50;101657.00;5138025;27;19923;-72
2023/05/06 10:23:39;;;;;;;;;;;;;;;20.47;45.48;101659.56;5128650;27;20302;-71
2023/05/06 10:26:06;;;;;;;;;;;;;;;20.49;45.52;101658.59;5137637;27;19912;-72
2023/05/06 10:28:32;;;;;;;;;;;;;;;20.52;45.65;101658.25;5130253;27;19912;-72
2023/05/06 10:30:57;;;;;;;;;;;;;;;20.53;45.55;101659.97;5113798;28;20001;-72
2023/05/06 10:33:22;;;;;;;;;;;;;;;20.55;45.76;101655.22;5132214;27;19916;-72
2023/05/06 10:35:51;;;;;;;;;;;;;;;20.55;45.82;101650.66;5125734;27;19930;-71
2023/05/06 10:38:19;;;;;;;;;;;;;;;20.57;45.78;101658.63;5112104;27;19955;-71
2023/05/06 10:40:44;;;;;;;;;;;;;;;20.58;45.91;101650.34;5113124;27;19916;-71
2023/05/06 10:43:23;;;;;;;;;;;;;;;20.59;45.73;101649.34;5103422;27;19911;-72
2023/05/06 10:46:03;;;;;;;;;;;;;;;20.61;45.92;101647.34;5134580;27;20003;-72
2023/05/06 10:48:29;;;;;;;;;;;;;;;20.63;45.87;101648.00;5136582;27;19920;-71
2023/05/06 10:51:30;;;;;;;;;;;;;;;20.64;45.99;101648.84;5133384;27;19998;-71
2023/05/06 10:54:02;;;;;;;;;;;;;;;20.66;45.61;101649.53;5049700;28;19925;-72
2023/05/06 10:56:57;;;;;;;;;;;;;;;20.68;45.91;101653.75;5035291;28;19928;-72
2023/05/06 10:59:23;;;;;;;;;;;;;;;20.69;45.76;101647.38;5046696;28;19970;-71
2023/05/06 11:01:56;;;;;;;;;;;;;;;20.71;45.67;101648.03;5043327;28;19925;-72
2023/05/06 11:04:21;;;;;;;;;;;;;;;20.72;45.96;101646.19;5034030;28;19913;-71
2023/05/06 11:06:47;;;;;;;;;;;;;;;20.76;46.11;101644.00;5037319;28;19920;-72
2023/05/06 11:09:16;;;;;;;;;;;;;;;20.76;46.09;101634.03;5031240;28;20016;-72
2023/05/06 11:11:45;;;;;;;;;;;;;;;20.78;46.10;101645.53;5048653;28;19921;-72
2023/05/06 11:14:14;;;;;;;;;;;;;;;20.79;45.91;101638.28;5026560;28;20333;-73
2023/05/06 11:16:46;;;;;;;;;;;;;;;20.80;46.00;101638.09;5049890;28;19925;-72
2023/05/06 11:19:16;;;;;;;;;;;;;;;20.81;46.10;101639.78;5051814;28;19913;-72
2023/05/06 11:21:41;;;;;;;;;;;;;;;20.83;45.85;101632.38;5046246;28;19919;-72
2023/05/06 11:24:07;;;;;;;;;;;;;;;20.84;46.15;101628.66;5051872;28;19913;-72
2023/05/06 11:26:32;;;;;;;;;;;;;;;20.86;45.90;101636.63;5047611;28;19913;-72
2023/05/06 11:28:57;;;;;;;;;;;;;;;20.88;45.93;101637.28;5119867;27;19975;-72
2023/05/06 11:31:22;;;;;;;;;;;;;;;20.89;46.13;101642.53;5113908;27;19916;-72
2023/05/06 11:33:48;;;;;;;;;;;;;;;20.90;46.19;101630.72;5112196;27;20085;-72
2023/05/06 11:36:13;;;;;;;;;;;;;;;20.93;46.04;101626.81;5115612;27;19973;-72
2023/05/06 11:38:40;;;;;;;;;;;;;;;20.94;46.28;101626.69;5131953;27;19920;-72
2023/05/06 11:41:06;;;;;;;;;;;;;;;20.96;46.09;101630.06;5114172;28;19922;-71
2023/05/06 11:43:31;;;;;;;;;;;;;;;20.97;46.03;101631.75;5135034;27;19955;-70
2023/05/06 11:45:57;;;;;;;;;;;;;;;20.99;46.27;101634.31;5130641;27;19922;-70
2023/05/06 11:48:22;;;;;;;;;;;;;;;21.01;46.25;101632.25;5137452;27;19912;-70
2023/05/06 11:50:48;;;;;;;;;;;;;;;21.03;46.32;101626.72;5133822;27;20034;-70
2023/05/06 11:53:15;;;;;;;;;;;;;;;21.04;46.23;101640.06;5117187;27;19917;-70
2023/05/06 11:55:40;;;;;;;;;;;;;;;21.05;46.34;101622.81;5111700;28;19912;-70
2023/05/06 11:58:10;;;;;;;;;;;;;;;21.06;46.29;101621.78;5130569;27;19981;-70
2023/05/06 12:00:35;;;;;;;;;;;;;;;21.08;46.14;101624.34;5114518;27;19958;-70
2023/05/06 12:03:02;;;;;;;;;;;;;;;21.09;46.41;101620.63;5131969;27;19915;-70
2023/05/06 12:05:28;;;;;;;;;;;;;;;21.10;46.45;101631.25;5130801;27;19912;-70
2023/05/06 12:07:53;;;;;;;;;;;;;;;21.10;46.42;101628.56;5114406;27;19911;-70
2023/05/06 12:10:19;;;;;;;;;;;;;;;21.11;46.34;101629.41;5117500;28;19933;-70
2023/05/06 12:12:44;;;;;;;;;;;;;;;21.12;46.43;101625.72;5129764;27;20005;-70
2023/05/06 12:15:10;;;;;;;;;;;;;;;21.12;46.41;101621.16;5117932;27;19915;-70
2023/05/06 12:17:35;;;;;;;;;;;;;;;21.13;46.23;101625.53;5111338;28;19916;-70
2023/05/06 12:20:00;;;;;;;;;;;;;;;21.14;46.54;101621.81;5112390;27;19916;-70
2023/05/06 12:22:25;;;;;;;;;;;;;;;21.15;46.61;101618.13;5114023;28;19947;-71
2023/05/06 12:24:51;;;;;;;;;;;;;;;21.15;46.31;101620.81;5129996;27;19936;-70
2023/05/06 12:27:36;;;;;;;;;;;;;;;21.16;46.37;101621.66;5131337;27;19916;-70
2023/05/06 12:30:03;;;;;;;;;;;;;;;21.17;46.39;101618.78;5134408;27;19915;-70